sensor_id;sensor_type;location;lat;lon;timestamp;temperature;humidity
24408;DHT22;12542;50.924;4.516;2024-03-29T11:29:04;18.90;99.90
24408;DHT22;12542;50.924;4.516;2024-03-29T11:31:30;18.20;99.90
24408;DHT22;12542;50.924;4.516;2024-03-29T11:33:58;18.00;99.90
24408;DHT22;12542;50.924;4.516;2024-03-29T11:36:28;17.30;99.90
24408;DHT22;12542;50.924;4.516;2024-03-29T11:38:57;17.50;99.90
24408;DHT22;12542;50.924;4.516;2024-03-29T11:41:24;17.50;99.90
24408;DHT22;12542;50.924;4.516;2024-03-29T11:43:51;17.20;99.90
24408;DHT22;12542;50.924;4.516;2024-03-29T11:46:17;17.40;99.90
24408;DHT22;12542;50.924;4.516;2024-03-29T11:48:44;17.90;99.90
24408;DHT22;12542;50.924;4.516;2024-03-29T11:51:13;18.40;99.90
24408;DHT22;12542;50.924;4.516;2024-03-29T11:53:42;18.50;99.90
24408;DHT22;12542;50.924;4.516;2024-03-29T11:56:11;18.70;99.90
24408;DHT22;12542;50.924;4.516;2024-03-29T11:58:40;17.80;99.90
24408;DHT22;12542;50.924;4.516;2024-03-29T12:01:06;17.30;99.90
24408;DHT22;12542;50.924;4.516;2024-03-29T12:03:38;17.10;99.90
24408;DHT22;12542;50.924;4.516;2024-03-29T12:06:04;17.30;99.90
24408;DHT22;12542;50.924;4.516;2024-03-29T12:08:32;16.80;99.90
24408;DHT22;12542;50.924;4.516;2024-03-29T12:10:59;17.10;99.90
24408;DHT22;12542;50.924;4.516;2024-03-29T12:13:25;16.90;99.90
24408;DHT22;12542;50.924;4.516;2024-03-29T12:15:51;16.80;99.90
24408;DHT22;12542;50.924;4.516;2024-03-29T12:18:19;17.10;99.90
24408;DHT22;12542;50.924;4.516;2024-03-29T12:20:45;17.20;99.90
24408;DHT22;12542;50.924;4.516;2024-03-29T12:23:22;17.30;99.90
24408;DHT22;12542;50.924;4.516;2024-03-29T12:25:50;17.70;99.90
24408;DHT22;12542;50.924;4.516;2024-03-29T12:28:19;17.60;99.90
24408;DHT22;12542;50.924;4.516;2024-03-29T12:30:46;17.80;99.90
24408;DHT22;12542;50.924;4.516;2024-03-29T12:33:15;17.80;99.90
24408;DHT22;12542;50.924;4.516;2024-03-29T12:35:44;18.40;99.90
24408;DHT22;12542;50.924;4.516;2024-03-29T12:38:12;18.10;99.90
24408;DHT22;12542;50.924;4.516;2024-03-29T12:40:42;18.30;99.90
24408;DHT22;12542;50.924;4.516;2024-03-29T12:43:09;18.30;99.90
24408;DHT22;12542;50.924;4.516;2024-03-29T12:45:36;18.00;99.90
24408;DHT22;12542;50.924;4.516;2024-03-29T12:48:02;17.30;99.90
24408;DHT22;12542;50.924;4.516;2024-03-29T12:50:31;17.10;99.90
24408;DHT22;12542;50.924;4.516;2024-03-29T12:52:59;17.20;99.90
24408;DHT22;12542;50.924;4.516;2024-03-29T12:55:27;17.40;99.90
24408;DHT22;12542;50.924;4.516;2024-03-29T12:57:57;17.10;99.90
24408;DHT22;12542;50.924;4.516;2024-03-29T13:00:26;16.80;99.90
24408;DHT22;12542;50.924;4.516;2024-03-29T13:02:52;16.50;99.90
24408;DHT22;12542;50.924;4.516;2024-03-29T13:05:18;16.80;99.90
24408;DHT22;12542;50.924;4.516;2024-03-29T13:07:46;17.40;99.90
24408;DHT22;12542;50.924;4.516;2024-03-29T13:10:12;17.20;99.90
24408;DHT22;12542;50.924;4.516;2024-03-29T13:12:42;17.10;99.90
24408;DHT22;12542;50.924;4.516;2024-03-29T13:15:20;17.30;99.90
24408;DHT22;12542;50.924;4.516;2024-03-29T13:17:47;17.70;99.90
24408;DHT22;12542;50.924;4.516;2024-03-29T13:20:14;17.70;99.90
24408;DHT22;12542;50.924;4.516;2024-03-29T13:22:44;18.50;99.90
24408;DHT22;12542;50.924;4.516;2024-03-29T13:25:21;18.30;99.90
24408;DHT22;12542;50.924;4.516;2024-03-29T13:27:50;18.50;99.90
24408;DHT22;12542;50.924;4.516;2024-03-29T13:30:19;18.30;99.90
24408;DHT22;12542;50.924;4.516;2024-03-29T13:32:45;17.90;99.90
24408;DHT22;12542;50.924;4.516;2024-03-29T13:35:11;17.90;99.90
24408;DHT22;12542;50.924;4.516;2024-03-29T13:37:38;17.80;99.90
24408;DHT22;12542;50.924;4.516;2024-03-29T13:40:06;18.20;99.90
24408;DHT22;12542;50.924;4.516;2024-03-29T13:42:32;18.50;99.90
24408;DHT22;12542;50.924;4.516;2024-03-29T13:44:57;19.00;99.90
24408;DHT22;12542;50.924;4.516;2024-03-29T13:47:23;19.30;99.90
24408;DHT22;12542;50.924;4.516;2024-03-29T13:49:49;19.10;99.90
24408;DHT22;12542;50.924;4.516;2024-03-29T13:52:19;19.20;99.90
24408;DHT22;12542;50.924;4.516;2024-03-29T13:54:45;19.30;99.90
24408;DHT22;12542;50.924;4.516;2024-03-29T13:57:16;18.70;99.90
24408;DHT22;12542;50.924;4.516;2024-03-29T13:59:48;18.10;99.90
24408;DHT22;12542;50.924;4.516;2024-03-29T14:02:16;18.20;99.90
24408;DHT22;12542;50.924;4.516;2024-03-29T14:04:44;18.40;99.90
24408;DHT22;12542;50.924;4.516;2024-03-29T14:07:10;18.50;99.90
24408;DHT22;12542;50.924;4.516;2024-03-29T14:09:38;18.20;99.90
24408;DHT22;12542;50.924;4.516;2024-03-29T14:12:04;17.80;99.90
24408;DHT22;12542;50.924;4.516;2024-03-29T14:14:30;17.40;99.90
24408;DHT22;12542;50.924;4.516;2024-03-29T14:16:57;16.90;99.90
24408;DHT22;12542;50.924;4.516;2024-03-29T14:19:23;16.90;99.90
24408;DHT22;12542;50.924;4.516;2024-03-29T14:21:49;16.80;99.90
24408;DHT22;12542;50.924;4.516;2024-03-29T14:24:15;16.90;99.90
24408;DHT22;12542;50.924;4.516;2024-03-29T14:26:44;16.70;99.90
24408;DHT22;12542;50.924;4.516;2024-03-29T14:29:10;16.50;99.90
24408;DHT22;12542;50.924;4.516;2024-03-29T14:31:37;16.10;99.90
24408;DHT22;12542;50.924;4.516;2024-03-29T14:34:03;16.00;99.90
24408;DHT22;12542;50.924;4.516;2024-03-29T14:36:29;16.10;99.90
24408;DHT22;12542;50.924;4.516;2024-03-29T14:38:58;16.30;99.90
24408;DHT22;12542;50.924;4.516;2024-03-29T14:41:26;16.70;99.90
24408;DHT22;12542;50.924;4.516;2024-03-29T14:43:54;16.80;99.90
24408;DHT22;12542;50.924;4.516;2024-03-29T14:46:22;16.50;99.90
24408;DHT22;12542;50.924;4.516;2024-03-29T14:48:48;16.40;99.90
24408;DHT22;12542;50.924;4.516;2024-03-29T14:51:16;16.10;99.90
24408;DHT22;12542;50.924;4.516;2024-03-29T14:53:42;16.30;99.90
24408;DHT22;12542;50.924;4.516;2024-03-29T14:56:13;16.50;99.90
24408;DHT22;12542;50.924;4.516;2024-03-29T14:58:39;16.40;99.90
24408;DHT22;12542;50.924;4.516;2024-03-29T15:01:05;16.30;99.90
24408;DHT22;12542;50.924;4.516;2024-03-29T15:03:31;16.50;99.90
24408;DHT22;12542;50.924;4.516;2024-03-29T15:05:57;16.10;99.90
24408;DHT22;12542;50.924;4.516;2024-03-29T15:08:22;15.90;99.90
24408;DHT22;12542;50.924;4.516;2024-03-29T15:13:23;16.00;99.90
24408;DHT22;12542;50.924;4.516;2024-03-29T15:16:02;16.00;99.90
24408;DHT22;12542;50.924;4.516;2024-03-29T15:18:28;15.90;99.90
24408;DHT22;12542;50.924;4.516;2024-03-29T15:20:59;15.90;99.90
24408;DHT22;12542;50.924;4.516;2024-03-29T15:23:27;15.80;99.90
24408;DHT22;12542;50.924;4.516;2024-03-29T15:25:56;15.70;99.90
24408;DHT22;12542;50.924;4.516;2024-03-29T15:28:24;15.60;99.90
24408;DHT22;12542;50.924;4.516;2024-03-29T15:33:36;15.90;99.90
24408;DHT22;12542;50.924;4.516;2024-03-29T15:36:01;15.90;99.90
24408;DHT22;12542;50.924;4.516;2024-03-29T15:38:27;16.10;99.90
24408;DHT22;12542;50.924;4.516;2024-03-29T15:40:55;15.80;99.90
24408;DHT22;12542;50.924;4.516;2024-03-29T15:43:21;15.80;99.90
24408;DHT22;12542;50.924;4.516;2024-03-29T15:45:47;15.80;99.90
24408;DHT22;12542;50.924;4.516;2024-03-29T15:48:12;15.70;99.90
24408;DHT22;12542;50.924;4.516;2024-03-29T15:50:38;15.50;99.90
24408;DHT22;12542;50.924;4.516;2024-03-29T15:53:04;15.40;99.90
24408;DHT22;12542;50.924;4.516;2024-03-29T15:55:33;15.70;99.90
24408;DHT22;12542;50.924;4.516;2024-03-29T15:57:59;15.80;99.90
24408;DHT22;12542;50.924;4.516;2024-03-29T16:00:24;15.80;99.90
24408;DHT22;12542;50.924;4.516;2024-03-29T16:02:52;15.80;99.90
24408;DHT22;12542;50.924;4.516;2024-03-29T16:05:18;15.80;99.90
24408;DHT22;12542;50.924;4.516;2024-03-29T16:07:47;15.90;99.90
24408;DHT22;12542;50.924;4.516;2024-03-29T16:10:12;15.80;99.90
24408;DHT22;12542;50.924;4.516;2024-03-29T16:12:38;15.80;99.90
24408;DHT22;12542;50.924;4.516;2024-03-29T16:15:04;15.70;99.90
24408;DHT22;12542;50.924;4.516;2024-03-29T16:17:30;15.70;99.90
24408;DHT22;12542;50.924;4.516;2024-03-29T16:19:56;15.90;99.90
24408;DHT22;12542;50.924;4.516;2024-03-29T16:22:23;15.90;99.90
24408;DHT22;12542;50.924;4.516;2024-03-29T16:24:49;15.90;99.90
24408;DHT22;12542;50.924;4.516;2024-03-29T16:27:15;15.70;99.90
24408;DHT22;12542;50.924;4.516;2024-03-29T16:29:42;15.30;99.90
24408;DHT22;12542;50.924;4.516;2024-03-29T16:32:08;15.30;99.90
24408;DHT22;12542;50.924;4.516;2024-03-29T16:34:35;15.10;99.90
24408;DHT22;12542;50.924;4.516;2024-03-29T16:37:01;15.20;99.90
24408;DHT22;12542;50.924;4.516;2024-03-29T16:39:29;15.10;99.90
24408;DHT22;12542;50.924;4.516;2024-03-29T16:41:55;15.20;99.90
24408;DHT22;12542;50.924;4.516;2024-03-29T16:44:22;15.20;99.90
24408;DHT22;12542;50.924;4.516;2024-03-29T16:46:48;15.10;99.90
24408;DHT22;12542;50.924;4.516;2024-03-29T16:49:14;15.10;99.90
24408;DHT22;12542;50.924;4.516;2024-03-29T16:51:40;15.10;99.90
24408;DHT22;12542;50.924;4.516;2024-03-29T16:54:05;15.20;99.90
24408;DHT22;12542;50.924;4.516;2024-03-29T16:56:31;15.10;99.90
24408;DHT22;12542;50.924;4.516;2024-03-29T16:58:57;15.10;99.90
24408;DHT22;12542;50.924;4.516;2024-03-29T17:01:23;15.10;99.90
24408;DHT22;12542;50.924;4.516;2024-03-29T17:03:49;15.10;99.90
24408;DHT22;12542;50.924;4.516;2024-03-29T17:06:15;15.10;99.90
24408;DHT22;12542;50.924;4.516;2024-03-29T17:08:41;15.10;99.90
24408;DHT22;12542;50.924;4.516;2024-03-29T17:11:09;15.00;99.90
24408;DHT22;12542;50.924;4.516;2024-03-29T17:13:35;15.00;99.90
24408;DHT22;12542;50.924;4.516;2024-03-29T17:16:00;15.00;99.90
24408;DHT22;12542;50.924;4.516;2024-03-29T17:18:27;14.90;99.90
24408;DHT22;12542;50.924;4.516;2024-03-29T17:20:53;14.80;99.90
24408;DHT22;12542;50.924;4.516;2024-03-29T17:23:19;14.60;99.90
24408;DHT22;12542;50.924;4.516;2024-03-29T17:25:45;14.70;99.90
24408;DHT22;12542;50.924;4.516;2024-03-29T17:28:11;14.70;99.90
24408;DHT22;12542;50.924;4.516;2024-03-29T17:30:36;14.60;99.90
24408;DHT22;12542;50.924;4.516;2024-03-29T17:33:02;14.60;99.90
24408;DHT22;12542;50.924;4.516;2024-03-29T17:35:29;14.60;99.90
24408;DHT22;12542;50.924;4.516;2024-03-29T17:37:55;14.60;99.90
24408;DHT22;12542;50.924;4.516;2024-03-29T17:40:21;14.50;99.90
24408;DHT22;12542;50.924;4.516;2024-03-29T17:42:46;14.40;99.90
24408;DHT22;12542;50.924;4.516;2024-03-29T17:45:12;14.40;99.90
24408;DHT22;12542;50.924;4.516;2024-03-29T17:47:38;14.30;99.90
24408;DHT22;12542;50.924;4.516;2024-03-29T17:50:04;14.30;99.90
24408;DHT22;12542;50.924;4.516;2024-03-29T17:52:31;14.20;99.90
24408;DHT22;12542;50.924;4.516;2024-03-29T17:54:56;14.10;99.90
24408;DHT22;12542;50.924;4.516;2024-03-29T17:57:22;14.10;99.90
24408;DHT22;12542;50.924;4.516;2024-03-29T17:59:48;14.10;99.90
24408;DHT22;12542;50.924;4.516;2024-03-29T18:02:13;14.20;99.90
24408;DHT22;12542;50.924;4.516;2024-03-29T18:04:39;14.20;99.90
24408;DHT22;12542;50.924;4.516;2024-03-29T18:07:05;14.20;99.90
24408;DHT22;12542;50.924;4.516;2024-03-29T18:09:31;14.30;99.90
24408;DHT22;12542;50.924;4.516;2024-03-29T18:11:56;14.20;99.90
24408;DHT22;12542;50.924;4.516;2024-03-29T18:14:22;14.30;99.90
24408;DHT22;12542;50.924;4.516;2024-03-29T18:16:48;14.30;99.90
24408;DHT22;12542;50.924;4.516;2024-03-29T18:19:14;14.10;99.90
24408;DHT22;12542;50.924;4.516;2024-03-29T18:21:40;14.10;99.90
24408;DHT22;12542;50.924;4.516;2024-03-29T18:24:10;14.10;99.90
24408;DHT22;12542;50.924;4.516;2024-03-29T18:26:38;14.00;99.90
24408;DHT22;12542;50.924;4.516;2024-03-29T18:29:04;14.00;99.90
24408;DHT22;12542;50.924;4.516;2024-03-29T18:31:30;14.00;99.90
24408;DHT22;12542;50.924;4.516;2024-03-29T18:33:55;14.00;99.90
24408;DHT22;12542;50.924;4.516;2024-03-29T18:36:23;13.90;99.90
24408;DHT22;12542;50.924;4.516;2024-03-29T18:38:49;13.90;99.90
24408;DHT22;12542;50.924;4.516;2024-03-29T18:41:14;13.80;99.90
24408;DHT22;12542;50.924;4.516;2024-03-29T18:43:44;13.80;99.90
24408;DHT22;12542;50.924;4.516;2024-03-29T18:46:10;13.80;99.90
24408;DHT22;12542;50.924;4.516;2024-03-29T18:48:36;13.80;99.90
24408;DHT22;12542;50.924;4.516;2024-03-29T18:51:01;13.70;99.90
24408;DHT22;12542;50.924;4.516;2024-03-29T18:53:27;13.70;99.90
24408;DHT22;12542;50.924;4.516;2024-03-29T18:55:54;13.60;99.90
24408;DHT22;12542;50.924;4.516;2024-03-29T18:58:20;13.60;99.90
24408;DHT22;12542;50.924;4.516;2024-03-29T19:00:46;13.50;99.90
24408;DHT22;12542;50.924;4.516;2024-03-29T19:03:14;13.50;99.90
24408;DHT22;12542;50.924;4.516;2024-03-29T19:05:39;13.40;99.90
24408;DHT22;12542;50.924;4.516;2024-03-29T19:08:05;13.40;99.90
24408;DHT22;12542;50.924;4.516;2024-03-29T19:10:31;13.40;99.90
24408;DHT22;12542;50.924;4.516;2024-03-29T19:12:57;13.40;99.90
24408;DHT22;12542;50.924;4.516;2024-03-29T19:15:23;13.40;99.90
24408;DHT22;12542;50.924;4.516;2024-03-29T19:17:48;13.30;99.90
24408;DHT22;12542;50.924;4.516;2024-03-29T19:20:14;13.30;99.90
24408;DHT22;12542;50.924;4.516;2024-03-29T19:22:40;13.30;99.90
24408;DHT22;12542;50.924;4.516;2024-03-29T19:25:06;13.20;99.90
24408;DHT22;12542;50.924;4.516;2024-03-29T19:27:32;13.20;99.90
24408;DHT22;12542;50.924;4.516;2024-03-29T19:29:57;13.20;99.90
24408;DHT22;12542;50.924;4.516;2024-03-29T19:32:27;13.10;99.90
24408;DHT22;12542;50.924;4.516;2024-03-29T19:34:53;13.10;99.90
24408;DHT22;12542;50.924;4.516;2024-03-29T19:37:19;13.10;99.90
24408;DHT22;12542;50.924;4.516;2024-03-29T19:39:44;13.10;99.90
24408;DHT22;12542;50.924;4.516;2024-03-29T19:42:10;13.00;99.90
24408;DHT22;12542;50.924;4.516;2024-03-29T19:44:36;13.00;99.90
24408;DHT22;12542;50.924;4.516;2024-03-29T19:47:02;13.00;99.90
24408;DHT22;12542;50.924;4.516;2024-03-29T19:49:28;13.00;99.90
24408;DHT22;12542;50.924;4.516;2024-03-29T19:51:54;13.00;99.90
24408;DHT22;12542;50.924;4.516;2024-03-29T19:54:22;13.00;99.90
24408;DHT22;12542;50.924;4.516;2024-03-29T19:56:48;13.00;99.90
24408;DHT22;12542;50.924;4.516;2024-03-29T19:59:14;12.90;99.90
24408;DHT22;12542;50.924;4.516;2024-03-29T20:01:39;12.90;99.90
24408;DHT22;12542;50.924;4.516;2024-03-29T20:04:06;12.90;99.90
24408;DHT22;12542;50.924;4.516;2024-03-29T20:06:33;12.90;99.90
24408;DHT22;12542;50.924;4.516;2024-03-29T20:08:59;12.90;99.90
24408;DHT22;12542;50.924;4.516;2024-03-29T20:11:25;12.80;99.90
24408;DHT22;12542;50.924;4.516;2024-03-29T20:13:51;12.90;99.90
24408;DHT22;12542;50.924;4.516;2024-03-29T20:16:16;12.90;99.90
24408;DHT22;12542;50.924;4.516;2024-03-29T20:18:42;12.80;99.90
24408;DHT22;12542;50.924;4.516;2024-03-29T20:21:08;12.80;99.90
24408;DHT22;12542;50.924;4.516;2024-03-29T20:23:36;12.80;99.90
24408;DHT22;12542;50.924;4.516;2024-03-29T20:26:02;12.70;99.90
24408;DHT22;12542;50.924;4.516;2024-03-29T20:28:28;12.70;99.90
24408;DHT22;12542;50.924;4.516;2024-03-29T20:30:55;12.60;99.90
24408;DHT22;12542;50.924;4.516;2024-03-29T20:33:21;12.50;99.90
24408;DHT22;12542;50.924;4.516;2024-03-29T20:35:47;12.40;99.90
24408;DHT22;12542;50.924;4.516;2024-03-29T20:38:12;12.40;99.90
24408;DHT22;12542;50.924;4.516;2024-03-29T20:40:38;12.40;99.90
24408;DHT22;12542;50.924;4.516;2024-03-29T20:43:06;12.30;99.90
24408;DHT22;12542;50.924;4.516;2024-03-29T20:45:32;12.20;99.90
24408;DHT22;12542;50.924;4.516;2024-03-29T20:47:58;12.10;99.90
24408;DHT22;12542;50.924;4.516;2024-03-29T20:50:28;12.00;99.90
24408;DHT22;12542;50.924;4.516;2024-03-29T20:52:56;12.00;99.90
24408;DHT22;12542;50.924;4.516;2024-03-29T20:55:23;12.00;99.90
24408;DHT22;12542;50.924;4.516;2024-03-29T20:57:52;12.00;99.90
24408;DHT22;12542;50.924;4.516;2024-03-29T21:00:21;12.00;99.90
24408;DHT22;12542;50.924;4.516;2024-03-29T21:02:48;12.00;99.90
24408;DHT22;12542;50.924;4.516;2024-03-29T21:05:32;12.00;99.90
24408;DHT22;12542;50.924;4.516;2024-03-29T21:08:07;12.00;99.90
24408;DHT22;12542;50.924;4.516;2024-03-29T21:10:34;11.90;99.90
24408;DHT22;12542;50.924;4.516;2024-03-29T21:13:02;11.90;99.90
24408;DHT22;12542;50.924;4.516;2024-03-29T21:15:31;11.90;99.90
24408;DHT22;12542;50.924;4.516;2024-03-29T21:17:59;11.90;99.90
24408;DHT22;12542;50.924;4.516;2024-03-29T21:20:25;11.90;99.90
24408;DHT22;12542;50.924;4.516;2024-03-29T21:22:51;11.80;99.90
24408;DHT22;12542;50.924;4.516;2024-03-29T21:25:17;11.80;99.90
24408;DHT22;12542;50.924;4.516;2024-03-29T21:27:43;11.80;99.90
24408;DHT22;12542;50.924;4.516;2024-03-29T21:30:12;11.80;99.90
24408;DHT22;12542;50.924;4.516;2024-03-29T21:32:43;11.80;99.90
24408;DHT22;12542;50.924;4.516;2024-03-29T21:35:09;11.80;99.90
24408;DHT22;12542;50.924;4.516;2024-03-29T21:37:35;11.80;99.90
24408;DHT22;12542;50.924;4.516;2024-03-29T21:40:03;11.70;99.90
24408;DHT22;12542;50.924;4.516;2024-03-29T21:42:30;11.70;99.90
24408;DHT22;12542;50.924;4.516;2024-03-29T21:44:56;11.70;99.90
24408;DHT22;12542;50.924;4.516;2024-03-29T21:47:22;11.60;99.90
24408;DHT22;12542;50.924;4.516;2024-03-29T21:49:49;11.70;99.90
24408;DHT22;12542;50.924;4.516;2024-03-29T21:52:15;11.60;99.90
24408;DHT22;12542;50.924;4.516;2024-03-29T21:54:42;11.60;99.90
24408;DHT22;12542;50.924;4.516;2024-03-29T21:57:08;11.60;99.90
24408;DHT22;12542;50.924;4.516;2024-03-29T21:59:37;11.60;99.90
24408;DHT22;12542;50.924;4.516;2024-03-29T22:02:03;11.60;99.90
24408;DHT22;12542;50.924;4.516;2024-03-29T22:04:30;11.60;99.90
24408;DHT22;12542;50.924;4.516;2024-03-29T22:06:56;11.60;99.90
24408;DHT22;12542;50.924;4.516;2024-03-29T22:09:22;11.60;99.90
24408;DHT22;12542;50.924;4.516;2024-03-29T22:11:48;11.50;99.90
24408;DHT22;12542;50.924;4.516;2024-03-29T22:14:14;11.50;99.90
24408;DHT22;12542;50.924;4.516;2024-03-29T22:16:39;11.50;99.90
24408;DHT22;12542;50.924;4.516;2024-03-29T22:19:05;11.50;99.90
24408;DHT22;12542;50.924;4.516;2024-03-29T22:21:33;11.50;99.90
24408;DHT22;12542;50.924;4.516;2024-03-29T22:24:00;11.40;99.90
24408;DHT22;12542;50.924;4.516;2024-03-29T22:26:25;11.40;99.90
24408;DHT22;12542;50.924;4.516;2024-03-29T22:28:53;11.40;99.90
24408;DHT22;12542;50.924;4.516;2024-03-29T22:31:19;11.40;99.90
24408;DHT22;12542;50.924;4.516;2024-03-29T22:33:45;11.30;99.90
24408;DHT22;12542;50.924;4.516;2024-03-29T22:36:13;11.30;99.90
24408;DHT22;12542;50.924;4.516;2024-03-29T22:38:38;11.30;99.90
24408;DHT22;12542;50.924;4.516;2024-03-29T22:41:06;11.30;99.90
24408;DHT22;12542;50.924;4.516;2024-03-29T22:43:32;11.20;99.90
24408;DHT22;12542;50.924;4.516;2024-03-29T22:45:58;11.20;99.90
24408;DHT22;12542;50.924;4.516;2024-03-29T22:48:24;11.20;99.90
24408;DHT22;12542;50.924;4.516;2024-03-29T22:50:51;11.20;99.90
24408;DHT22;12542;50.924;4.516;2024-03-29T22:53:18;11.10;99.90
24408;DHT22;12542;50.924;4.516;2024-03-29T22:55:44;11.10;99.90
24408;DHT22;12542;50.924;4.516;2024-03-29T22:58:11;11.10;99.90
24408;DHT22;12542;50.924;4.516;2024-03-29T23:00:37;11.10;99.90
24408;DHT22;12542;50.924;4.516;2024-03-29T23:03:03;11.00;99.90
24408;DHT22;12542;50.924;4.516;2024-03-29T23:05:30;11.10;99.90
24408;DHT22;12542;50.924;4.516;2024-03-29T23:07:56;11.00;99.90
24408;DHT22;12542;50.924;4.516;2024-03-29T23:10:23;11.00;99.90
24408;DHT22;12542;50.924;4.516;2024-03-29T23:12:51;10.90;99.90
24408;DHT22;12542;50.924;4.516;2024-03-29T23:15:18;10.90;99.90
24408;DHT22;12542;50.924;4.516;2024-03-29T23:17:46;10.90;99.90
24408;DHT22;12542;50.924;4.516;2024-03-29T23:20:13;10.90;99.90
24408;DHT22;12542;50.924;4.516;2024-03-29T23:22:41;10.80;99.90
24408;DHT22;12542;50.924;4.516;2024-03-29T23:25:07;10.80;99.90
24408;DHT22;12542;50.924;4.516;2024-03-29T23:27:34;10.90;99.90
24408;DHT22;12542;50.924;4.516;2024-03-29T23:30:00;10.80;99.90
24408;DHT22;12542;50.924;4.516;2024-03-29T23:32:26;10.80;99.90
24408;DHT22;12542;50.924;4.516;2024-03-29T23:34:52;10.80;99.90
24408;DHT22;12542;50.924;4.516;2024-03-29T23:37:19;10.80;99.90
24408;DHT22;12542;50.924;4.516;2024-03-29T23:39:48;10.70;99.90
24408;DHT22;12542;50.924;4.516;2024-03-29T23:42:14;10.80;99.90
24408;DHT22;12542;50.924;4.516;2024-03-29T23:44:41;10.80;99.90
24408;DHT22;12542;50.924;4.516;2024-03-29T23:47:06;10.80;99.90
24408;DHT22;12542;50.924;4.516;2024-03-29T23:49:32;10.80;99.90
24408;DHT22;12542;50.924;4.516;2024-03-29T23:51:58;10.90;99.90
24408;DHT22;12542;50.924;4.516;2024-03-29T23:54:24;11.00;99.90
24408;DHT22;12542;50.924;4.516;2024-03-29T23:56:50;11.00;99.90
24408;DHT22;12542;50.924;4.516;2024-03-29T23:59:15;11.10;99.90
